Time;durP1;ratioP1;P1;durP2;ratioP2;P2;SDS_P1;SDS_P2;PMS_P1;PMS_P2;Temp;Humidity;BMP_temperature;BMP_pressure;BME280_temperature;BME280_humidity;BME280_pressure;Samples;Min_cycle;Max_cycle;Signal;HPM_P1;HPM_P2
2022/09/03 00:02:23;;;;;;;4.80;1.52;;;;;;;28.55;26.98;101141.31;5055836;28;20067;-73
2022/09/03 00:05:12;;;;;;;3.45;1.73;;;;;;;28.67;26.96;101144.88;5064673;28;20033;-73
2022/09/03 00:08:00;;;;;;;2.35;1.40;;;;;;;28.17;27.58;101142.59;5044068;28;20494;-73
2022/09/03 00:10:47;;;;;;;2.78;1.33;;;;;;;27.49;28.11;101142.47;5048102;28;20025;-73
2022/09/03 00:13:22;;;;;;;2.40;1.50;;;;;;;28.13;27.40;101131.22;5063321;28;20029;-73
2022/09/03 00:15:52;;;;;;;5.93;1.90;;;;;;;27.99;27.72;101135.00;5053300;28;20111;-73
2022/09/03 00:18:24;;;;;;;4.30;1.58;;;;;;;27.87;27.41;101130.59;5035837;28;20116;-73
2022/09/03 00:20:54;;;;;;;4.15;1.85;;;;;;;28.07;27.53;101131.75;5038865;28;20049;-73
2022/09/03 00:23:26;;;;;;;2.60;1.45;;;;;;;28.14;27.84;101134.75;5063199;28;20120;-73
2022/09/03 00:25:59;;;;;;;6.25;1.63;;;;;;;28.43;27.24;101125.22;5047137;28;20056;-73
2022/09/03 00:28:31;;;;;;;2.67;1.77;;;;;;;27.55;28.36;101126.75;5037903;28;20017;-73
2022/09/03 00:31:10;;;;;;;3.58;1.60;;;;;;;27.65;28.27;101115.31;5072652;28;20016;-73
2022/09/03 00:33:38;;;;;;;6.70;1.75;;;;;;;27.93;27.79;101120.22;5050365;28;20025;-73
2022/09/03 00:36:13;;;;;;;6.25;2.47;;;;;;;27.97;27.62;101119.97;5058413;28;20115;-72
2022/09/03 00:38:39;;;;;;;3.85;1.70;;;;;;;28.23;27.11;101118.78;5057891;28;20445;-73
2022/09/03 00:41:16;;;;;;;4.32;2.80;;;;;;;27.88;27.75;101117.03;5069275;28;20124;-73
2022/09/03 00:43:45;;;;;;;11.00;2.42;;;;;;;27.92;28.23;101118.50;5058196;28;20037;-73
2022/09/03 00:46:29;;;;;;;3.45;1.65;;;;;;;27.98;27.75;101124.38;5054296;28;20515;-73
2022/09/03 00:49:21;;;;;;;3.10;1.73;;;;;;;27.65;28.40;101121.53;5050716;28;20039;-73
2022/09/03 00:51:52;;;;;;;5.32;1.70;;;;;;;27.61;28.34;101119.22;5053636;28;20028;-73
2022/09/03 00:54:31;;;;;;;3.15;1.83;;;;;;;27.77;28.35;101119.72;5039908;28;20484;-73
2022/09/03 00:57:29;;;;;;;5.25;1.63;;;;;;;27.72;28.23;101119.22;5058377;28;20036;-73
2022/09/03 01:00:03;;;;;;;5.53;1.70;;;;;;;28.08;27.73;101126.25;5000778;28;20049;-73
2022/09/03 01:03:08;;;;;;;3.80;1.60;;;;;;;27.95;27.97;101127.31;5034800;28;20028;-73
2022/09/03 01:05:58;;;;;;;6.40;1.90;;;;;;;27.89;28.73;101129.50;5046143;28;20036;-73
2022/09/03 01:08:49;;;;;;;7.15;2.00;;;;;;;27.20;28.80;101124.06;5036244;28;20415;-72
2022/09/03 01:11:25;;;;;;;2.95;1.65;;;;;;;27.41;28.61;101129.66;5070126;28;20058;-73
2022/09/03 01:14:01;;;;;;;3.50;1.80;;;;;;;27.74;28.64;101128.03;5053520;28;20056;-73
2022/09/03 01:16:52;;;;;;;5.07;1.58;;;;;;;27.45;28.71;101124.91;5039877;28;20036;-73
2022/09/03 01:19:31;;;;;;;2.88;1.70;;;;;;;27.85;27.63;101119.97;5038294;28;20428;-73
2022/09/03 01:22:25;;;;;;;3.80;1.73;;;;;;;27.04;28.89;101121.69;5042160;28;20051;-73
2022/09/03 01:25:01;;;;;;;;;;;;;;;27.41;28.80;101126.97;5062235;28;20111;-73
2022/09/03 01:27:39;;;;;;;4.53;1.60;;;;;;;26.94;28.74;101134.06;5045697;28;19912;-73
2022/09/03 01:30:16;;;;;;;4.88;1.75;;;;;;;27.30;28.50;101134.94;5038026;28;20087;-73
2022/09/03 01:32:46;;;;;;;5.13;1.95;;;;;;;27.17;28.50;101135.88;5066939;28;20028;-73
2022/09/03 01:35:20;;;;;;;2.83;1.77;;;;;;;27.86;28.03;101129.75;5041702;28;20075;-73
2022/09/03 01:37:54;;;;;;;6.25;2.45;;;;;;;27.41;28.13;101129.66;5052770;28;20788;-73
2022/09/03 01:40:47;;;;;;;2.67;1.60;;;;;;;27.84;27.95;101125.47;5061988;28;20024;-73
2022/09/03 01:43:26;;;;;;;3.10;1.40;;;;;;;27.72;27.47;101130.81;5033842;28;20115;-73
2022/09/03 01:46:07;;;;;;;4.43;1.73;;;;;;;28.25;27.27;101127.56;5054367;28;20082;-73
2022/09/03 01:48:39;;;;;;;6.97;1.92;;;;;;;27.42;28.15;101131.34;5037530;28;20376;-73
2022/09/03 01:51:26;;;;;;;;;;;;;;;28.15;27.45;101129.28;5068164;28;20102;-73
2022/09/03 01:54:25;;;;;;;3.70;2.30;;;;;;;27.73;28.12;101123.63;5058992;28;19916;-73
2022/09/03 01:57:27;;;;;;;3.45;1.67;;;;;;;27.47;27.91;101123.81;5049365;28;20036;-73
2022/09/03 02:00:01;;;;;;;4.85;1.60;;;;;;;28.08;27.21;101122.69;5053569;28;20025;-73
2022/09/03 02:02:27;;;;;;;2.65;1.83;;;;;;;27.61;27.97;101127.25;5057867;28;20033;-73
2022/09/03 02:05:00;;;;;;;3.97;2.00;;;;;;;27.09;28.36;101124.88;5052418;28;20385;-73
2022/09/03 02:07:32;;;;;;;8.70;1.65;;;;;;;26.74;28.77;101125.69;5056610;28;20098;-73
2022/09/03 02:09:59;;;;;;;2.53;1.45;;;;;;;27.25;28.60;101120.06;5033890;28;20070;-73
2022/09/03 02:12:32;;;;;;;5.28;1.88;;;;;;;27.56;27.75;101111.50;5040511;28;20032;-73
2022/09/03 02:15:02;;;;;;;5.45;2.10;;;;;;;27.16;28.54;101115.41;5033458;28;20366;-73
2022/09/03 02:17:30;;;;;;;3.45;1.80;;;;;;;27.16;28.19;101102.00;5034485;28;20296;-73
2022/09/03 02:19:56;;;;;;;2.25;1.63;;;;;;;27.26;28.27;101107.50;5068536;28;20075;-73
2022/09/03 02:22:21;;;;;;;5.88;1.75;;;;;;;27.18;28.40;101108.09;5055141;28;20032;-73
2022/09/03 02:24:47;;;;;;;3.17;1.65;;;;;;;27.87;27.43;101109.94;5034520;28;20481;-73
2022/09/03 02:27:12;;;;;;;5.68;1.83;;;;;;;27.45;28.21;101111.47;5064751;28;20032;-73
2022/09/03 02:29:38;;;;;;;1.95;1.70;;;;;;;27.49;27.84;101103.09;5035520;28;20028;-73
2022/09/03 02:32:03;;;;;;;3.20;1.88;;;;;;;27.43;28.10;101099.03;5041879;28;20119;-73
2022/09/03 02:34:29;;;;;;;4.45;1.90;;;;;;;27.06;29.11;101098.28;5037988;28;21540;-73
2022/09/03 02:36:54;;;;;;;2.80;1.83;;;;;;;27.12;27.98;101097.84;5036198;28;20156;-73
2022/09/03 02:39:19;;;;;;;2.17;1.60;;;;;;;26.84;28.88;101099.06;5059370;28;20040;-73
2022/09/03 02:41:53;;;;;;;4.10;1.50;;;;;;;26.94;28.71;101104.56;5044356;28;20097;-73
2022/09/03 02:44:22;;;;;;;5.07;1.80;;;;;;;27.22;28.43;101109.56;5036807;28;20037;-73
2022/09/03 02:46:55;;;;;;;7.55;1.77;;;;;;;26.83;28.70;101119.66;5070084;28;20048;-73
2022/09/03 02:49:21;;;;;;;4.63;1.98;;;;;;;26.22;29.54;101120.44;5064015;28;20028;-73
2022/09/03 02:51:47;;;;;;;3.17;1.90;;;;;;;26.20;29.36;101122.38;5055407;28;20040;-73
2022/09/03 02:54:12;;;;;;;2.47;1.70;;;;;;;26.50;28.96;101117.59;5032580;28;20052;-73
2022/09/03 02:56:38;;;;;;;3.90;1.85;;;;;;;26.85;29.33;101115.03;5035978;28;20487;-73
2022/09/03 02:59:06;;;;;;;2.85;2.08;;;;;;;27.28;28.69;101096.66;5067899;28;20025;-72
2022/09/03 03:01:32;;;;;;;4.13;1.92;;;;;;;26.83;29.12;101113.41;5055421;28;20036;-73
2022/09/03 03:03:57;;;;;;;2.13;1.90;;;;;;;26.97;28.49;101104.34;5058715;28;20025;-72
2022/09/03 03:06:23;;;;;;;4.47;1.90;;;;;;;26.74;29.30;101109.59;5053034;28;20029;-73
2022/09/03 03:08:49;;;;;;;3.25;1.80;;;;;;;26.41;29.27;101111.94;5058367;28;20081;-73
2022/09/03 03:11:17;;;;;;;5.32;2.30;;;;;;;26.26;29.27;101105.00;5042407;28;20063;-73
2022/09/03 03:13:44;;;;;;;2.47;1.83;;;;;;;26.94;28.98;101097.38;5045592;28;20452;-73
2022/09/03 03:16:10;;;;;;;3.05;2.03;;;;;;;26.54;29.52;101111.91;5032272;28;20035;-73
2022/09/03 03:18:35;;;;;;;2.38;2.00;;;;;;;26.66;29.17;101107.44;5060359;28;20071;-73
2022/09/03 03:21:09;;;;;;;5.43;3.55;;;;;;;26.83;28.99;101108.06;5069791;28;20033;-73
2022/09/03 03:23:35;;;;;;;1.98;1.77;;;;;;;26.93;29.15;101101.06;5064485;28;20111;-72
2022/09/03 03:26:03;;;;;;;4.57;2.53;;;;;;;26.54;29.53;101103.88;5045891;28;20054;-73
2022/09/03 03:28:31;;;;;;;2.67;2.20;;;;;;;26.44;29.59;101113.53;5038811;28;20086;-73
2022/09/03 03:30:57;;;;;;;4.78;2.33;;;;;;;26.50;29.70;101102.38;5063169;28;20108;-73
2022/09/03 03:33:22;;;;;;;3.00;2.05;;;;;;;26.86;29.18;101100.66;5068189;28;20104;-73
2022/09/03 03:35:48;;;;;;;5.72;2.25;;;;;;;26.53;29.51;101112.88;5040121;28;20086;-73
2022/09/03 03:38:13;;;;;;;3.20;2.20;;;;;;;26.73;29.04;101102.53;5046020;28;20035;-73
2022/09/03 03:40:38;;;;;;;5.95;2.50;;;;;;;26.62;29.41;101108.66;5065127;28;20038;-73
2022/09/03 03:43:04;;;;;;;10.27;2.10;;;;;;;26.20;30.42;101106.31;5072689;28;20033;-73
2022/09/03 03:45:29;;;;;;;3.50;2.00;;;;;;;26.69;29.40;101109.06;5050831;28;20060;-73
2022/09/03 03:47:58;;;;;;;3.25;2.45;;;;;;;26.63;29.98;101106.84;5076504;28;20033;-73
2022/09/03 03:50:24;;;;;;;4.70;2.25;;;;;;;26.38;29.63;101108.63;5076466;28;20522;-73
2022/09/03 03:52:50;;;;;;;3.95;2.20;;;;;;;26.58;29.76;101108.03;5089918;28;20027;-74
2022/09/03 03:55:15;;;;;;;5.38;2.20;;;;;;;25.71;30.72;101115.13;5069812;28;20554;-73
2022/09/03 03:57:40;;;;;;;6.30;2.30;;;;;;;26.46;29.84;101111.63;5078793;28;20107;-73
2022/09/03 04:00:06;;;;;;;6.00;2.72;;;;;;;26.54;29.47;101109.22;5078879;28;20032;-73
2022/09/03 04:02:33;;;;;;;4.30;2.42;;;;;;;25.87;30.30;101113.06;5075728;28;20090;-73
2022/09/03 04:04:59;;;;;;;4.32;1.95;;;;;;;25.99;30.45;101113.16;5084772;28;20032;-73
2022/09/03 04:07:24;;;;;;;6.68;3.35;;;;;;;26.30;30.15;101105.66;5092368;28;20031;-72
2022/09/03 04:09:49;;;;;;;6.28;2.90;;;;;;;26.11;30.13;101109.66;5066252;28;20063;-73
2022/09/03 04:12:15;;;;;;;3.42;2.45;;;;;;;25.98;30.39;101111.44;5061239;28;20078;-73
2022/09/03 04:14:41;;;;;;;4.13;2.42;;;;;;;25.96;30.73;101108.03;5091513;28;20028;-73
2022/09/03 04:17:06;;;;;;;4.18;2.45;;;;;;;26.01;30.69;101116.59;5072334;28;21581;-73
2022/09/03 04:19:32;;;;;;;4.70;2.05;;;;;;;25.83;30.72;101114.25;5057527;28;20024;-73
2022/09/03 04:21:57;;;;;;;4.57;2.47;;;;;;;26.16;30.48;101115.53;5067524;28;20591;-73
2022/09/03 04:24:22;;;;;;;5.25;2.60;;;;;;;26.37;30.07;101106.91;5061122;28;20040;-73
2022/09/03 04:26:49;;;;;;;5.38;2.60;;;;;;;26.26;29.83;101112.22;5055532;28;20028;-73
2022/09/03 04:29:14;;;;;;;3.20;2.35;;;;;;;25.95;30.21;101111.66;5070064;28;20029;-73
2022/09/03 04:32:51;;;;;;;3.55;2.10;;;;;;;26.11;30.31;101112.31;5073419;28;20510;-73
2022/09/03 04:34:25;;;;;;;8.95;2.65;;;;;;;26.05;30.56;101107.41;5074135;28;20107;-73
2022/09/03 04:36:50;;;;;;;6.55;2.65;;;;;;;26.49;29.54;101106.03;5082614;28;20119;-73
2022/09/03 04:39:16;;;;;;;5.70;2.20;;;;;;;26.38;29.83;101103.28;5056984;28;20411;-73
2022/09/03 04:41:41;;;;;;;6.22;2.55;;;;;;;25.99;30.63;101095.25;5071999;28;20021;-73
2022/09/03 04:44:06;;;;;;;9.00;2.40;;;;;;;25.65;30.93;101104.81;5057439;28;20540;-73
2022/09/03 04:46:32;;;;;;;4.10;2.40;;;;;;;25.96;30.76;101108.03;5064152;28;20585;-73
2022/09/03 04:48:57;;;;;;;3.97;2.30;;;;;;;25.93;30.97;101102.91;5062482;28;20028;-73
2022/09/03 04:51:28;;;;;;;4.75;2.63;;;;;;;25.75;31.36;101100.56;5052487;28;20115;-73
2022/09/03 04:54:00;;;;;;;3.70;2.33;;;;;;;25.77;31.05;101098.59;5066578;28;20043;-74
2022/09/03 04:56:28;;;;;;;4.60;2.80;;;;;;;25.69;31.19;101100.97;5068215;28;20029;-74
2022/09/03 04:58:56;;;;;;;4.45;2.15;;;;;;;25.97;30.85;101101.72;5054034;28;20075;-73
2022/09/03 05:01:23;;;;;;;6.53;2.65;;;;;;;25.68;30.90;101104.63;5059497;28;20020;-73
2022/09/03 05:03:51;;;;;;;10.20;3.58;;;;;;;25.59;31.54;101100.75;5048391;28;20029;-73
2022/09/03 05:06:17;;;;;;;4.18;2.38;;;;;;;25.26;32.03;101104.75;5054018;28;20103;-73
2022/09/03 05:08:45;;;;;;;5.93;3.15;;;;;;;25.51;31.94;101103.97;5035055;28;20542;-73
2022/09/03 05:11:10;;;;;;;9.85;2.70;;;;;;;25.46;31.38;101100.75;5054890;28;20132;-72
2022/09/03 05:13:36;;;;;;;3.83;2.53;;;;;;;25.96;31.66;101114.22;5036203;28;20108;-72
2022/09/03 05:16:05;;;;;;;3.97;2.65;;;;;;;25.78;31.08;101116.38;5039127;28;20028;-73
2022/09/03 05:18:30;;;;;;;2.38;1.92;;;;;;;25.60;31.37;101106.97;5045471;28;20138;-73
2022/09/03 05:21:00;;;;;;;3.97;2.40;;;;;;;25.62;31.60;101105.03;5052517;28;20366;-73
2022/09/03 05:23:30;;;;;;;5.30;2.63;;;;;;;25.83;30.96;101118.72;5034121;28;20051;-73
2022/09/03 05:26:01;;;;;;;2.97;2.10;;;;;;;26.12;30.31;101107.81;5064348;28;20078;-73
2022/09/03 05:28:29;;;;;;;10.05;2.40;;;;;;;26.34;30.38;101112.50;5058916;28;20025;-73
2022/09/03 05:31:15;;;;;;;5.53;2.58;;;;;;;26.18;31.09;101102.88;5049987;28;20032;-74
2022/09/03 05:33:46;;;;;;;5.38;2.58;;;;;;;26.07;31.14;101106.31;5056313;28;20036;-73
2022/09/03 05:36:14;;;;;;;3.78;2.38;;;;;;;26.40;30.77;101109.38;5038614;28;20035;-74
2022/09/03 05:38:41;;;;;;;5.95;2.35;;;;;;;26.41;30.27;101109.25;5067689;28;20037;-73
2022/09/03 05:41:08;;;;;;;3.63;2.67;;;;;;;26.41;30.67;101113.75;5033651;28;20032;-73
2022/09/03 05:43:34;;;;;;;3.72;2.40;;;;;;;26.02;31.52;101108.50;5037620;28;20029;-73
2022/09/03 05:46:01;;;;;;;5.68;2.92;;;;;;;25.96;31.01;101108.03;5054330;28;20048;-73
2022/09/03 05:48:29;;;;;;;4.70;2.53;;;;;;;24.71;32.16;101106.63;5072613;28;20111;-72
2022/09/03 05:50:59;;;;;;;7.18;2.35;;;;;;;26.14;31.03;101106.75;5056488;28;20425;-73
2022/09/03 05:53:25;;;;;;;8.35;2.50;;;;;;;26.17;30.92;101114.59;5058828;28;20036;-72
2022/09/03 05:55:58;;;;;;;4.10;2.33;;;;;;;25.50;31.82;101110.28;5054533;28;20123;-73
2022/09/03 05:58:25;;;;;;;4.38;1.80;;;;;;;26.13;31.01;101117.56;5084538;28;20107;-73
2022/09/03 06:00:51;;;;;;;3.28;2.10;;;;;;;25.95;31.05;101117.88;5057608;28;20032;-73
2022/09/03 06:03:16;;;;;;;2.67;1.90;;;;;;;26.54;30.63;101119.94;5058836;28;20081;-73
2022/09/03 06:05:53;;;;;;;2.60;1.80;;;;;;;26.46;30.46;101111.63;5083010;28;20042;-74
2022/09/03 06:08:20;;;;;;;3.35;2.20;;;;;;;25.71;31.48;101115.13;5084416;28;20025;-73
2022/09/03 06:10:46;;;;;;;9.50;2.20;;;;;;;25.86;31.25;101115.88;5085137;28;20031;-73
2022/09/03 06:13:12;;;;;;;6.00;2.40;;;;;;;25.99;31.49;101123.88;5080811;28;20475;-73
2022/09/03 06:15:37;;;;;;;4.90;2.25;;;;;;;26.23;30.91;101116.81;5056396;28;20036;-73
2022/09/03 06:18:03;;;;;;;4.75;2.10;;;;;;;26.35;30.62;101119.56;5060769;28;20024;-73
2022/09/03 06:20:29;;;;;;;8.38;2.45;;;;;;;26.25;30.69;101111.31;5086984;28;20137;-73
2022/09/03 06:22:55;;;;;;;5.22;1.95;;;;;;;26.00;31.30;101114.88;5062883;28;20119;-73
2022/09/03 06:25:20;;;;;;;5.38;2.20;;;;;;;26.74;30.77;101123.00;5072206;28;20119;-73
2022/09/03 06:27:46;;;;;;;4.00;2.28;;;;;;;25.31;32.19;101128.53;5072544;28;20093;-73
2022/09/03 06:30:12;;;;;;;5.60;2.40;;;;;;;25.09;32.87;101124.63;5060772;28;20090;-73
2022/09/03 06:32:45;;;;;;;4.70;2.47;;;;;;;25.98;31.26;101122.16;5057396;28;20036;-73
2022/09/03 06:35:11;;;;;;;4.28;2.00;;;;;;;26.17;31.22;101127.09;5074346;28;20047;-73
2022/09/03 06:37:40;;;;;;;3.38;2.28;;;;;;;26.41;30.54;101129.84;5059169;28;20028;-74
2022/09/03 06:40:08;;;;;;;5.00;2.40;;;;;;;25.97;31.11;101123.16;5058810;28;20035;-73
2022/09/03 06:42:33;;;;;;;5.75;2.28;;;;;;;26.63;30.49;101125.59;5058636;28;20056;-74
2022/09/03 06:44:59;;;;;;;7.47;2.20;;;;;;;26.76;30.25;101129.09;5056525;28;20083;-73
2022/09/03 06:47:24;;;;;;;2.53;1.75;;;;;;;27.05;29.83;101123.38;5081755;28;20028;-73
2022/09/03 06:49:49;;;;;;;2.72;1.95;;;;;;;26.31;30.82;101129.66;5065918;28;20198;-73
2022/09/03 06:52:15;;;;;;;3.65;2.40;;;;;;;26.16;31.24;101131.59;5060337;28;20059;-73
2022/09/03 06:54:41;;;;;;;7.03;2.08;;;;;;;27.12;29.93;101130.03;5072569;28;20315;-73
2022/09/03 06:57:06;;;;;;;3.60;2.80;;;;;;;26.95;30.01;101133.13;5071791;28;20445;-73
2022/09/03 06:59:31;;;;;;;3.10;2.05;;;;;;;27.52;29.43;101132.38;5073070;28;20035;-74
2022/09/03 07:01:59;;;;;;;2.92;2.05;;;;;;;27.34;29.64;101125.69;5076498;28;20055;-73
2022/09/03 07:04:26;;;;;;;5.72;2.03;;;;;;;27.37;29.58;101133.56;5073537;28;20029;-74
2022/09/03 07:06:51;;;;;;;2.97;1.70;;;;;;;28.05;29.10;101133.69;5067343;28;20027;-73
2022/09/03 07:09:17;;;;;;;4.65;2.38;;;;;;;26.72;30.74;101143.69;5083076;28;20028;-73
2022/09/03 07:11:46;;;;;;;3.30;2.10;;;;;;;27.46;29.75;101126.63;5060739;28;20023;-73
2022/09/03 07:14:12;;;;;;;3.53;2.30;;;;;;;26.62;31.07;101137.28;5085439;28;20032;-74
2022/09/03 07:16:38;;;;;;;3.03;2.00;;;;;;;27.36;29.80;101137.22;5053142;28;20663;-73
2022/09/03 07:19:04;;;;;;;4.65;1.90;;;;;;;27.50;29.65;101139.66;5070380;28;20536;-73
2022/09/03 07:21:32;;;;;;;6.20;2.10;;;;;;;27.28;30.52;101139.59;5073410;28;20021;-74
2022/09/03 07:23:59;;;;;;;6.07;3.28;;;;;;;28.45;28.79;101135.84;5060067;28;20119;-74
2022/09/03 07:26:25;;;;;;;4.88;2.45;;;;;;;28.29;29.13;101135.38;5092402;28;20115;-74
2022/09/03 07:28:53;;;;;;;2.53;2.08;;;;;;;27.18;29.75;101142.97;5061279;28;20030;-74
2022/09/03 07:31:26;;;;;;;7.03;2.20;;;;;;;27.30;29.98;101137.63;5076337;28;20108;-73
2022/09/03 07:34:05;;;;;;;3.88;2.13;;;;;;;28.74;28.18;101141.56;5076700;28;20020;-74
2022/09/03 07:36:36;;;;;;;4.70;2.40;;;;;;;30.99;25.67;101144.63;5071316;28;20047;-74
2022/09/03 07:39:03;;;;;;;4.10;1.85;;;;;;;32.72;23.48;101141.75;5064843;28;20033;-74
2022/09/03 07:41:31;;;;;;;3.83;1.85;;;;;;;33.22;23.00;101143.09;5071725;28;20097;-75
2022/09/03 07:43:58;;;;;;;3.28;2.10;;;;;;;34.48;21.17;101130.97;5058823;28;20027;-75
2022/09/03 07:46:26;;;;;;;1.95;1.80;;;;;;;35.26;20.43;101143.28;5042084;28;20056;-75
2022/09/03 07:48:57;;;;;;;3.10;1.98;;;;;;;35.28;20.44;101133.13;5051568;28;20020;-74
2022/09/03 07:51:27;;;;;;;4.10;1.90;;;;;;;35.36;19.52;101137.72;5047204;28;20044;-74
2022/09/03 07:54:01;;;;;;;6.28;1.88;;;;;;;35.64;19.16;101143.63;5065323;28;20392;-74
2022/09/03 07:56:31;;;;;;;5.15;1.75;;;;;;;37.94;17.69;101136.88;5070996;28;20423;-74
2022/09/03 07:58:57;;;;;;;10.90;1.90;;;;;;;35.75;19.37;101152.41;5060153;28;20504;-75
2022/09/03 08:01:25;;;;;;;3.58;1.70;;;;;;;34.78;19.68;101155.78;5060915;28;20024;-75
2022/09/03 08:03:52;;;;;;;3.05;1.60;;;;;;;35.39;19.26;101152.81;5067023;28;20033;-76
2022/09/03 08:06:20;;;;;;;4.35;1.70;;;;;;;34.16;20.33;101146.94;5038740;28;20436;-77
2022/09/03 08:08:46;;;;;;;2.97;1.73;;;;;;;33.06;21.94;101151.91;5057143;28;20017;-73
2022/09/03 08:11:18;;;;;;;3.47;1.80;;;;;;;34.09;21.23;101150.47;5056290;28;20036;-75
2022/09/03 08:14:01;;;;;;;7.95;1.50;;;;;;;34.88;20.29;101156.50;5038661;28;20028;-75
2022/09/03 08:16:35;;;;;;;9.30;2.08;;;;;;;34.41;20.81;101159.78;5059391;28;20408;-75
2022/09/03 08:19:01;;;;;;;2.83;1.42;;;;;;;33.65;20.73;101159.50;5067977;28;20036;-75
2022/09/03 08:21:27;;;;;;;3.92;1.60;;;;;;;33.05;21.82;101168.31;5041383;28;20028;-75
2022/09/03 08:24:03;;;;;;;4.03;1.75;;;;;;;32.91;22.21;101178.66;5036148;28;20519;-74
2022/09/03 08:26:32;;;;;;;4.88;1.80;;;;;;;33.39;22.31;101178.44;5058715;28;20036;-70
2022/09/03 08:28:58;;;;;;;4.47;1.83;;;;;;;32.68;23.33;101182.78;5033962;28;20052;-72
2022/09/03 08:31:25;;;;;;;8.15;1.98;;;;;;;33.43;22.42;101183.38;5053463;28;20686;-71
2022/09/03 08:33:52;;;;;;;7.32;2.10;;;;;;;32.70;22.37;101180.78;5060880;28;20123;-71
2022/09/03 08:36:24;;;;;;;5.15;1.90;;;;;;;32.38;23.12;101188.34;5054881;28;20413;-72
2022/09/03 08:38:53;;;;;;;3.90;2.00;;;;;;;33.39;23.03;101182.00;5073344;28;20070;-71
2022/09/03 08:41:49;;;;;;;8.45;2.00;;;;;;;34.64;21.92;101187.16;5069659;28;20054;-71
2022/09/03 08:44:45;;;;;;;5.25;1.80;;;;;;;36.48;19.91;101181.28;5073278;28;20406;-72
2022/09/03 08:47:12;;;;;;;4.53;2.08;;;;;;;34.96;20.36;101182.84;5065380;28;20076;-72
2022/09/03 08:50:06;;;;;;;6.78;1.90;;;;;;;37.25;18.81;101176.88;5053862;28;20025;-72
2022/09/03 08:52:47;;;;;;;5.57;2.10;;;;;;;38.05;18.07;101179.19;5056317;28;20028;-70
2022/09/03 08:55:22;;;;;;;5.23;1.80;;;;;;;37.03;18.06;101178.59;5052916;28;20028;-71
2022/09/03 08:57:52;;;;;;;6.93;1.83;;;;;;;37.63;17.87;101179.63;5060789;28;20041;-72
2022/09/03 09:00:18;;;;;;;4.72;1.63;;;;;;;37.54;17.56;101186.19;5057752;28;20060;-72
2022/09/03 09:02:52;;;;;;;3.60;2.03;;;;;;;36.38;18.94;101179.78;5056844;28;20056;-71
2022/09/03 09:05:29;;;;;;;2.72;1.67;;;;;;;37.13;18.52;101183.78;5047945;28;20499;-71
2022/09/03 09:08:16;;;;;;;6.38;1.80;;;;;;;36.87;18.65;101179.53;5063032;28;20126;-71
2022/09/03 09:11:00;;;;;;;2.75;1.65;;;;;;;36.04;18.44;101180.91;5060363;28;20037;-71
2022/09/03 09:13:49;;;;;;;3.67;1.75;;;;;;;36.45;18.93;101187.09;5055062;28;20025;-71
2022/09/03 09:16:20;;;;;;;7.43;1.40;;;;;;;36.16;19.44;101179.50;5070902;28;20024;-71
2022/09/03 09:18:52;;;;;;;3.33;1.67;;;;;;;37.06;17.98;101186.38;5072632;28;20134;-71
2022/09/03 09:21:31;;;;;;;3.60;1.63;;;;;;;37.56;17.57;101184.09;5069824;28;20082;-71
2022/09/03 09:24:02;;;;;;;4.22;1.60;;;;;;;37.31;17.97;101181.59;5070050;28;20346;-71
2022/09/03 09:26:28;;;;;;;10.50;1.73;;;;;;;37.56;17.85;101186.81;5072089;28;20492;-71
2022/09/03 09:29:10;;;;;;;5.57;2.00;;;;;;;37.24;19.24;101186.06;5072091;28;20324;-71
2022/09/03 09:31:38;;;;;;;7.70;2.20;;;;;;;37.61;18.22;101192.56;5070410;28;20062;-71
2022/09/03 09:34:06;;;;;;;5.47;2.38;;;;;;;38.03;17.40;101184.81;5072120;28;20271;-71
2022/09/03 09:36:45;;;;;;;6.88;1.92;;;;;;;36.58;19.34;101186.50;5072384;28;20037;-71
2022/09/03 09:39:14;;;;;;;11.55;1.95;;;;;;;37.09;18.56;101193.34;5071251;28;20058;-71
2022/09/03 09:41:40;;;;;;;5.85;1.98;;;;;;;36.57;19.32;101190.22;5070797;28;20033;-71
2022/09/03 09:44:05;;;;;;;4.85;1.90;;;;;;;36.06;19.62;101193.31;5071922;28;20024;-71
2022/09/03 09:46:35;;;;;;;4.63;1.85;;;;;;;36.78;19.43;101191.47;5073232;28;20076;-71
2022/09/03 09:49:01;;;;;;;3.63;1.48;;;;;;;37.54;18.76;101194.34;5091904;28;20108;-71
2022/09/03 09:51:31;;;;;;;3.72;1.95;;;;;;;37.34;17.89;101194.88;5089624;28;20082;-71
2022/09/03 09:54:00;;;;;;;4.45;1.60;;;;;;;37.58;18.38;101186.63;5091793;28;20047;-71
2022/09/03 09:56:25;;;;;;;6.38;2.00;;;;;;;36.22;19.91;101186.13;5092246;28;20024;-71
2022/09/03 09:59:09;;;;;;;2.72;2.00;;;;;;;37.42;18.84;101193.09;5073016;28;20041;-72
2022/09/03 10:01:38;;;;;;;6.28;2.08;;;;;;;38.43;17.99;101193.56;5072687;28;20031;-71
2022/09/03 10:04:22;;;;;;;4.78;2.17;;;;;;;38.38;17.53;101184.28;5073686;28;20032;-71
2022/09/03 10:06:55;;;;;;;6.35;2.25;;;;;;;36.35;19.64;101191.88;5091377;28;20070;-71
2022/09/03 10:09:24;;;;;;;4.85;2.00;;;;;;;37.01;18.88;101184.22;5073854;28;20065;-72
2022/09/03 10:12:10;;;;;;;5.65;2.17;;;;;;;35.79;20.04;101186.38;5089928;28;20036;-71
2022/09/03 10:14:41;;;;;;;4.95;2.10;;;;;;;35.67;19.91;101184.03;5054485;28;20028;-71
2022/09/03 10:17:34;;;;;;;3.43;2.00;;;;;;;36.45;19.20;101175.34;5077427;28;20028;-71
2022/09/03 10:22:52;;;;;;;3.85;2.22;;;;;;;36.52;19.71;101173.63;5071762;28;20288;-72
2022/09/03 10:25:21;;;;;;;4.20;1.98;;;;;;;36.78;19.25;101164.25;5053584;28;20480;-71
2022/09/03 10:27:46;;;;;;;8.10;1.80;;;;;;;36.77;19.68;101163.41;5052553;28;20468;-71
2022/09/03 10:30:15;;;;;;;8.25;1.92;;;;;;;35.84;20.43;101173.16;5071123;28;20039;-72
2022/09/03 10:32:47;;;;;;;5.97;2.20;;;;;;;36.63;19.65;101167.75;5055389;28;20361;-71
2022/09/03 10:35:30;;;;;;;9.75;2.28;;;;;;;36.95;19.14;101167.75;5090566;28;20023;-71
2022/09/03 10:38:09;;;;;;;8.80;2.45;;;;;;;36.68;19.74;101165.34;5072520;28;20483;-71
2022/09/03 10:40:52;;;;;;;4.05;2.60;;;;;;;36.66;19.66;101163.84;5072455;28;20023;-71
2022/09/03 10:43:35;;;;;;;4.40;2.17;;;;;;;36.64;19.80;101166.75;5073346;28;20038;-71
2022/09/03 10:46:14;;;;;;;;;;;;;;;36.10;20.06;101162.03;5078463;28;20160;-71
2022/09/03 10:49:09;;;;;;;6.50;1.92;;;;;;;36.48;19.66;101158.66;5052197;28;19935;-71
2022/09/03 10:51:41;;;;;;;4.00;2.33;;;;;;;36.35;19.97;101153.78;5053256;28;20048;-72
2022/09/03 10:54:12;;;;;;;5.63;2.38;;;;;;;36.15;19.90;101153.34;5053005;28;20384;-72
2022/09/03 10:57:06;;;;;;;4.95;2.20;;;;;;;36.40;20.43;101156.81;5069393;28;20028;-72
2022/09/03 10:59:46;;;;;;;5.03;2.25;;;;;;;36.48;20.15;101158.66;5070289;28;20408;-71
2022/09/03 11:02:52;;;;;;;6.82;2.45;;;;;;;36.70;19.90;101156.13;5049803;28;20037;-72
2022/09/03 11:05:20;;;;;;;4.93;2.33;;;;;;;35.91;20.59;101163.28;5033067;28;20079;-71
2022/09/03 11:07:50;;;;;;;6.95;2.40;;;;;;;37.51;19.43;101153.84;5050992;28;20029;-71
2022/09/03 11:10:23;;;;;;;8.27;2.70;;;;;;;37.85;18.78;101155.19;5049654;28;20067;-71
2022/09/03 11:13:13;;;;;;;8.35;3.30;;;;;;;37.24;19.40;101158.81;5068807;28;20063;-71
2022/09/03 11:15:47;;;;;;;3.10;1.95;;;;;;;37.77;18.38;101158.00;5071055;28;20028;-72
2022/09/03 11:18:19;;;;;;;4.15;1.88;;;;;;;38.23;18.14;101157.00;5052608;28;20056;-72
2022/09/03 11:20:48;;;;;;;3.58;1.40;;;;;;;38.39;17.85;101151.31;5070514;28;20063;-71
2022/09/03 11:23:15;;;;;;;4.07;1.75;;;;;;;37.65;18.23;101144.00;5068624;28;20119;-71
2022/09/03 11:25:50;;;;;;;6.78;2.13;;;;;;;36.88;19.07;101142.25;5070865;28;20107;-71
2022/09/03 11:28:17;;;;;;;3.25;1.77;;;;;;;36.51;19.28;101142.81;5052641;28;20468;-71
2022/09/03 11:31:12;;;;;;;3.15;1.85;;;;;;;37.72;18.31;101149.53;5069965;28;20028;-71
2022/09/03 11:33:43;;;;;;;3.58;1.45;;;;;;;37.51;18.70;101148.41;5062162;28;20021;-71
2022/09/03 11:36:09;;;;;;;4.30;1.60;;;;;;;38.02;17.99;101144.97;5050528;28;20032;-72
2022/09/03 11:38:36;;;;;;;3.75;1.60;;;;;;;37.30;18.20;101151.81;5032270;28;20497;-72
2022/09/03 11:41:11;;;;;;;3.00;2.15;;;;;;;37.71;18.04;101142.38;5050020;28;20427;-72
2022/09/03 11:43:38;;;;;;;2.58;1.92;;;;;;;37.47;17.78;101147.91;5050654;28;20031;-71
2022/09/03 11:46:12;;;;;;;8.05;1.85;;;;;;;37.16;18.44;101150.72;5052001;28;20048;-71
2022/09/03 11:48:40;;;;;;;3.47;1.80;;;;;;;38.06;17.24;101145.41;5032521;28;20025;-71
2022/09/03 11:51:23;;;;;;;3.08;1.73;;;;;;;38.28;17.55;101144.47;5052224;28;20024;-71